Latest Coastal Weather Observations for Bundaberg

IDQ60701

Issued at 8:15 pm EST Wednesday 16 April 2014 (issued every 10 minutes, with the page automatically refreshed every 10 minutes)

About coastal observations | Map of coastal stations | Coastal observations for QLD | Marine services | Other Formats
Station Details ID: 039128 Name: BUNDABERG AERO Lat: -24.91 Lon: 152.32 Height: 30.82 m
Data from the previous 72 hours. | See also: Recent months at Bundaberg
Date/Time
EST
Temp

°C
Wind Pressure Rain
since 9am
mm
Weather Cloud Vis
km
Sea
Height
m
Swell
Dir
 
Speed
knots
Gust
knots
hPa Trend Height
m
Period
s
Dir
16/08:00pm 19.3 S 1 5 1015.9 - 0.0 - - 10 - - - -
16/07:30pm 19.9 CALM 0 0 1015.6 - 0.0 - - 10 - - - -
16/07:00pm 20.7 CALM 0 3 1015.0 - 0.0 - - 10 - - - -
16/06:30pm 21.9 SSW 4 5 1014.9 - 0.0 - Partly cloudy 10 - - - -
16/06:00pm 22.4 N 5 6 1014.1 - 0.0 - - 10 - - - -
16/05:30pm 23.0 NNE 6 8 1014.0 - 0.0 - - 10 - - - -
16/05:00pm 23.8 NNE 10 12 1013.4 - 0.0 - - 10 - - - -
16/04:30pm 25.0 NNE 9 12 1013.2 - 0.0 - - 10 - - - -
16/04:00pm 26.1 NNE 8 11 1013.1 - 0.0 - - 10 - - - -
16/03:30pm 26.2 NE 9 11 1013.0 - 0.0 - Partly cloudy 10 - - - -
16/03:00pm 26.6 ENE 9 13 1012.8 - 0.0 - Mostly clear 10 - - - -
16/02:30pm 26.5 CALM 0 3 1013.4 - 0.0 - Partly cloudy 10 - - - -
16/02:00pm 26.7 WSW 4 6 1013.6 - 0.0 - Partly cloudy 10 - - - -
16/01:30pm 26.8 S 5 8 1013.7 - 0.0 - Partly cloudy 10 - - - -
16/01:00pm 27.0 ESE 3 6 1014.2 - 0.0 - - 10 - - - -
16/12:30pm 26.7 S 6 9 1014.6 - 0.0 - - 10 - - - -
16/12:00pm 26.3 SSW 5 9 1014.8 - 0.0 - - 10 - - - -
16/11:30am 25.6 SSE 5 9 1015.5 - 0.0 - - 10 - - - -
16/11:00am 25.4 S 6 8 1016.0 - 0.0 - - 10 - - - -
16/10:30am 24.8 S 5 8 1016.6 - 0.0 - - 10 - - - -
16/10:00am 24.6 SSE 7 10 1016.9 - 0.0 - - 10 - - - -
16/09:30am 23.4 S 7 10 1017.0 - 0.0 - - 10 - - - -
16/09:00am 22.7 S 7 11 1016.7 - 0.0 - - 10 - - - -
16/08:30am 21.5 S 7 9 1016.8 - 0.0 - - 10 - - - -
16/08:00am 20.3 S 6 8 1016.8 - 0.0 - - 10 - - - -
16/07:30am 19.2 SSW 6 7 1016.7 - 0.0 - - 10 - - - -
16/07:00am 17.9 SSW 5 7 1016.3 - 0.0 - - 10 - - - -
16/06:30am 16.9 SW 5 6 1016.1 - 0.0 - - 10 - - - -
16/06:00am 16.6 SSW 5 6 1015.6 - 0.0 - - 10 - - - -
16/05:30am 17.0 SSW 5 7 1015.2 - 0.0 - - 10 - - - -
16/05:00am 17.2 SSW 6 8 1015.0 - 0.0 - - 10 - - - -
16/04:30am 17.2 SSW 6 8 1014.9 - 0.0 - - 10 - - - -
16/04:00am 17.2 SSW 6 8 1014.8 - 0.0 - - 10 - - - -
16/03:30am 17.3 SSW 5 7 1014.7 - 0.0 - - 10 - - - -
16/03:00am 17.4 SSW 5 6 1014.7 - 0.0 - - 10 - - - -
16/02:30am 17.2 SW 5 6 1015.0 - 0.0 - - 10 - - - -
16/02:00am 17.6 SSW 5 6 1015.0 - 0.0 - - 10 - - - -
16/01:30am 17.5 S 4 6 1015.2 - 0.0 - - 10 - - - -
16/01:00am 17.8 S 3 5 1015.5 - 0.0 - - 10 - - - -
16/12:30am 17.6 SSW 4 5 1015.8 - 0.0 - - 10 - - - -
16/12:00am 17.6 WSW 4 5 1015.7 - 0.0 - - 10 - - - -
 
Date/Time
EST
Temp

°C
Wind Pressure Rain
since 9am
mm
Weather Cloud Vis
km
Sea
Height
m
Swell
Dir
 
Speed
knots
Gust
knots
hPa Trend Height
m
Period
s
Dir
15/11:30pm 18.3 SSW 4 5 1015.8 - 0.0 - - 10 - - - -
15/11:00pm 18.9 S 6 8 1015.6 - 0.0 - - 10 - - - -
15/10:30pm 19.4 SSE 5 7 1015.6 - 0.0 - - 10 - - - -
15/10:00pm 19.2 S 4 6 1015.7 - 0.0 - - 10 - - - -
15/09:30pm 19.4 SSE 4 6 1015.7 - 0.0 - - 10 - - - -
15/09:00pm 19.3 SE 5 6 1015.2 - 0.0 - - 10 - - - -
15/08:30pm 19.4 SE 6 7 1015.4 - 0.0 - - 10 - - - -
15/08:00pm 19.6 SE 6 7 1015.2 - 0.0 - Partly cloudy 10 - - - -
15/07:30pm 20.3 SE 6 7 1015.0 - 0.0 - - 10 - - - -
15/07:00pm 21.4 ESE 8 9 1014.7 - 0.0 - - 10 - - - -
15/06:30pm 21.9 ESE 9 11 1014.4 - 0.0 - Partly cloudy 10 - - - -
15/06:00pm 22.6 ESE 9 11 1013.7 - 0.0 - Partly cloudy 10 - - - -
15/05:30pm 23.5 ESE 9 11 1013.6 - 0.0 - Partly cloudy 10 - - - -
15/05:00pm 24.1 ESE 9 13 1013.3 - 0.0 - Partly cloudy 10 - - - -
15/04:30pm 23.9 E 9 12 1013.0 - 0.0 - Partly cloudy 10 - - - -
15/04:00pm 25.6 ESE 10 15 1012.7 - 0.0 - Partly cloudy 10 - - - -
15/03:30pm 26.4 ESE 13 16 1012.5 - 0.0 - Partly cloudy 10 - - - -
15/03:00pm 25.7 E 9 12 1012.3 - 0.0 - Cloudy 10 - - - -
15/02:30pm 26.8 SE 7 9 1012.6 - 0.0 - Partly cloudy 10 - - - -
15/02:00pm 26.5 SSE 9 14 1012.5 - 0.0 - Partly cloudy 10 - - - -
15/01:30pm 26.4 SE 11 15 1012.6 - 0.0 - Partly cloudy 10 - - - -
15/01:00pm 26.4 SE 11 15 1012.8 - 0.0 - Partly cloudy 10 - - - -
15/12:30pm 26.6 SSE 8 13 1013.2 - 0.0 - Partly cloudy 10 - - - -
15/12:00pm 26.2 SE 10 15 1013.4 - 0.0 - Partly cloudy 10 - - - -
15/11:30am 26.6 SE 12 15 1014.1 - 0.0 - Partly cloudy 10 - - - -
15/11:00am 25.4 SSE 13 17 1014.5 - 0.0 - Partly cloudy 10 - - - -
15/10:30am 24.7 SSE 11 16 1014.9 - 0.0 - Partly cloudy 10 - - - -
15/10:00am 24.7 SSE 10 17 1015.0 - 0.0 - Partly cloudy 10 - - - -
15/09:30am 23.7 SSE 12 17 1015.3 - 0.0 - Partly cloudy 10 - - - -
15/09:00am 23.9 SSE 10 17 1015.0 - 4.4 - - 10 - - - -
15/08:30am 22.8 S 10 14 1015.1 - 4.4 - - 10 - - - -
15/08:00am 21.9 S 9 14 1014.8 - 4.4 - - 10 - - - -
15/07:30am 20.8 S 10 15 1014.6 - 4.4 - Partly cloudy 10 - - - -
15/07:00am 19.8 SSW 8 11 1014.4 - 4.4 - - 10 - - - -
15/06:30am 18.9 SSW 7 11 1014.3 - 4.4 - - 10 - - - -
15/06:00am 18.5 SSW 7 10 1013.7 - 4.4 - - 10 - - - -
15/05:30am 18.4 SW 7 10 1013.9 - 4.4 - - 10 - - - -
15/05:00am 18.5 SW 6 9 1013.7 - 4.4 - - 10 - - - -
15/04:30am 18.8 SW 7 9 1013.2 - 4.4 - - 10 - - - -
15/04:00am 18.8 SW 7 10 1012.9 - 4.4 - - 10 - - - -
15/03:30am 18.9 SW 7 9 1012.6 - 4.4 - - 10 - - - -
15/03:00am 19.2 SSW 7 9 1012.3 - 4.4 - - 10 - - - -
15/02:30am 19.2 SSW 7 10 1012.5 - 4.4 - - 10 - - - -
15/02:00am 19.5 SSW 7 11 1012.4 - 4.4 - - 10 - - - -
15/01:30am 19.6 SW 7 9 1012.6 - 4.4 - - 10 - - - -
15/01:00am 19.7 SSW 7 10 1012.6 - 4.4 - - 10 - - - -
15/12:30am 19.7 SW 6 9 1012.6 - 4.4 - - 10 - - - -
15/12:00am 20.0 SW 6 9 1012.5 - 4.4 - - 10 - - - -
 
Date/Time
EST
Temp

°C
Wind Pressure Rain
since 9am
mm
Weather Cloud Vis
km
Sea
Height
m
Swell
Dir
 
Speed
knots
Gust
knots
hPa Trend Height
m
Period
s
Dir
14/11:30pm 20.5 SSW 6 9 1012.5 - 4.4 - Partly cloudy 10 - - - -
14/11:00pm 20.4 SSW 6 8 1012.5 - 4.4 - Partly cloudy 10 - - - -
14/10:30pm 20.9 S 7 10 1012.8 - 4.4 - - 10 - - - -
14/10:00pm 20.9 S 7 10 1012.7 - 4.4 - Partly cloudy 10 - - - -
14/09:30pm 21.1 S 8 12 1012.6 - 4.4 - - 10 - - - -
14/09:00pm 21.4 S 8 13 1012.2 - 4.4 - Mostly clear 10 - - - -
14/08:30pm 22.0 S 10 15 1012.4 - 4.4 - Cloudy 10 - - - -
14/08:00pm 22.1 S 10 15 1012.3 - 4.4 - Partly cloudy 10 - - - -
14/07:30pm 22.0 SSW 9 15 1011.7 - 4.4 - Partly cloudy 10 - - - -
14/07:00pm 21.5 SSW 7 10 1010.9 - 4.4 - Partly cloudy 10 - - - -
14/06:30pm 21.6 S 8 11 1010.5 - 4.4 - Partly cloudy 10 - - - -
14/06:00pm 21.6 S 12 19 1009.9 - 4.4 - Cloudy 10 - - - -
14/05:30pm 21.2 S 9 13 1009.6 - 4.4 - Partly cloudy 10 - - - -
14/05:00pm 21.5 S 10 15 1009.2 - 4.4 - Partly cloudy 8 - - - -
14/04:42pm 22.0 S 8 13 1008.6 - 4.4 - Partly cloudy 10 - - - -
14/04:31pm 21.8 SSE 7 10 1008.4 - 4.2 - Partly cloudy 9 - - - -
14/04:30pm 21.8 SSE 7 12 1008.4 - 4.2 - Partly cloudy 9 - - - -
14/04:00pm 22.1 S 8 12 1007.9 - 4.2 - Partly cloudy 10 - - - -
14/03:38pm 21.4 S 10 15 1007.8 - 4.2 - Partly cloudy 10 - - - -
14/03:32pm 21.4 S 10 18 1007.7 - 4.2 - Partly cloudy 10 - - - -
14/03:30pm 21.3 S 11 18 1007.7 - 4.2 - Partly cloudy 7 - - - -
14/03:13pm 21.1 S 11 27 1007.7 - 3.8 - Partly cloudy 3 - - - -
14/03:10pm 21.6 S 10 16 1007.7 - 2.8 - Partly cloudy 5 - - - -
14/03:00pm 22.4 S 12 20 1007.3 - 2.4 - Cloudy 10 - - - -
14/02:30pm 21.9 S 12 21 1007.4 - 2.4 - Partly cloudy 10 - - - -
14/02:27pm 21.9 S 13 22 1007.4 - 2.4 - Partly cloudy 7 - - - -
14/02:00pm 22.7 S 13 21 1007.3 - 2.4 - Partly cloudy 10 - - - -
14/01:30pm 22.1 SSE 13 19 1007.3 - 2.4 - Partly cloudy 10 - - - -
14/01:14pm 22.0 S 13 18 1007.3 - 2.4 - Partly cloudy 9 - - - -
14/01:00pm 21.9 SSE 13 22 1007.3 - 2.4 - Partly cloudy 5 - - - -
14/12:57pm 22.0 S 12 19 1007.3 - 2.4 - Partly cloudy 5 - - - -
14/12:30pm 22.3 SSE 15 22 1007.2 - 2.2 - Partly cloudy 10 - - - -
14/12:12pm 22.1 SSE 16 26 1007.4 - 2.2 - Partly cloudy 4 - - - -
14/12:10pm 22.1 SE 18 26 1007.5 - 2.0 - Partly cloudy 5 - - - -
14/12:00pm 24.4 S 12 17 1007.0 - 0.0 - Cloudy 10 - - - -
14/11:31am 25.2 SE 19 30 1007.6 - 0.0 - Partly cloudy 10 - - - -
14/11:30am 25.2 SE 19 27 1007.6 - 0.0 - Partly cloudy 10 - - - -
14/11:00am 25.0 SE 17 28 1008.0 - 0.0 - Partly cloudy 10 - - - -
14/10:54am 24.9 SE 17 28 1008.2 - 0.0 - Partly cloudy 10 - - - -
14/10:30am 23.3 SSE 10 16 1008.5 - 0.0 - Cloudy 10 - - - -
14/10:00am 22.6 S 10 14 1008.8 - 0.0 - Partly cloudy 10 - - - -
14/09:30am 22.2 S 10 16 1008.8 - 0.0 - Partly cloudy 10 - - - -
14/09:00am 22.0 SSE 10 14 1008.6 - 35.6 - Mostly cloudy 10 - - - -
14/08:30am 22.8 SE 16 21 1008.7 - 35.6 - - 10 - - - -
14/08:00am 22.4 SE 13 17 1008.9 - 35.6 - Partly cloudy 10 - - - -
14/07:30am 22.0 SE 13 17 1009.0 - 35.6 - Partly cloudy 10 - - - -
14/07:00am 21.8 ESE 12 15 1009.1 - 35.6 - Partly cloudy 10 - - - -
14/06:30am 21.0 SE 7 8 1009.2 - 35.6 - Partly cloudy 10 - - - -
14/06:00am 20.9 SE 8 10 1009.1 - 35.6 - Cloudy 10 - - - -
14/05:30am 20.9 ESE 11 14 1009.4 - 35.6 - Partly cloudy 10 - - - -
14/05:00am 20.9 ESE 10 13 1009.6 - 35.6 - Partly cloudy 10 - - - -
14/04:30am 20.8 ESE 13 17 1009.6 - 35.4 - Partly cloudy 10 - - - -
14/04:00am 20.8 E 11 13 1009.7 - 34.8 - Partly cloudy 10 - - - -
14/03:30am 21.0 E 11 14 1009.9 - 33.8 - Partly cloudy 10 - - - -
14/03:00am 20.9 E 13 16 1009.8 - 33.2 - Cloudy 10 - - - -
14/02:30am 20.4 SE 6 7 1009.9 - 32.8 - Partly cloudy 10 - - - -
14/02:00am 20.4 SE 8 10 1009.9 - 32.4 - Partly cloudy 10 - - - -
14/01:30am 20.3 SE 8 10 1010.2 - 32.4 - Partly cloudy 10 - - - -
14/01:00am 20.1 SSE 7 9 1010.8 - 32.2 - Partly cloudy 10 - - - -
14/12:39am 20.2 SSE 7 9 1011.3 - 32.2 - Partly cloudy 10 - - - -
14/12:30am 20.2 SSE 6 9 1011.6 - 32.2 - Partly cloudy 10 - - - -
14/12:00am 20.1 S 6 9 1011.7 - 32.2 - Cloudy 10 - - - -
 
Date/Time
EST
Temp

°C
Wind Pressure Rain
since 9am
mm
Weather Cloud Vis
km
Sea
Height
m
Swell
Dir
 
Speed
knots
Gust
knots
hPa Trend Height
m
Period
s
Dir
13/11:30pm 20.2 S 5 7 1012.5 - 32.2 - Partly cloudy 10 - - - -
13/11:00pm 20.2 SE 7 10 1012.3 - 31.8 - Partly cloudy 10 - - - -
13/10:30pm 20.3 SSE 7 9 1013.0 - 31.2 - Partly cloudy 10 - - - -
13/10:28pm 20.3 SSE 7 9 1013.0 - 31.2 - Partly cloudy 10 - - - -
13/10:00pm 20.3 SSE 12 17 1012.3 - 30.4 - Partly cloudy 10 - - - -
13/09:41pm 20.3 SSE 10 13 1012.8 - 30.0 - Partly cloudy 10 - - - -
13/09:30pm 20.4 SSE 9 14 1013.1 - 29.4 - Partly cloudy 10 - - - -
13/09:00pm 20.8 S 7 12 1012.9 - 27.4 - Cloudy 10 - - - -
13/08:59pm 20.8 S 8 12 1013.1 - 27.4 - Partly cloudy 10 - - - -
13/08:30pm 20.6 SSE 8 10 1012.7 - 26.6 - Cloudy 10 - - - -

Other Formats:

Comma delimited format used in spreadsheet applications
http://www.bom.gov.au/fwo/IDQ60701/IDQ60701.94387.axf

JavaScript Object Notation format (JSON) in row-major order
http://www.bom.gov.au/fwo/IDQ60701/IDQ60701.94387.json